createdAt,value
2023-05-02T00:02:06.295Z,9.10
2023-05-02T00:04:33.923Z,9.10
2023-05-02T00:07:01.346Z,9.10
2023-05-02T00:09:28.816Z,9.10
2023-05-02T00:11:56.095Z,9.10
2023-05-02T00:14:23.706Z,9.10
2023-05-02T00:16:51.133Z,9.10
2023-05-02T00:19:18.550Z,9.20
2023-05-02T00:21:48.597Z,9.10
2023-05-02T00:24:17.475Z,9.10
2023-05-02T00:26:45.035Z,9.10
2023-05-02T00:29:12.393Z,9.10
2023-05-02T00:31:41.207Z,9.00
2023-05-02T00:34:08.977Z,9.10
2023-05-02T00:36:36.145Z,9.20
2023-05-02T00:39:04.428Z,9.20
2023-05-02T00:41:31.564Z,9.10
2023-05-02T00:43:59.706Z,9.10
2023-05-02T00:46:27.212Z,9.00
2023-05-02T00:48:55.655Z,9.00
2023-05-02T00:51:23.779Z,9.10
2023-05-02T00:53:50.900Z,9.10
2023-05-02T00:56:17.912Z,9.10
2023-05-02T00:58:44.604Z,9.10
2023-05-02T01:01:16.226Z,9.20
2023-05-02T01:04:11.125Z,9.10
2023-05-02T01:06:47.560Z,9.00
2023-05-02T01:09:17.604Z,8.80
2023-05-02T01:12:16.424Z,8.80
2023-05-02T01:14:45.797Z,8.70
2023-05-02T01:17:14.289Z,8.60
2023-05-02T01:19:44.300Z,8.60
2023-05-02T01:22:11.270Z,8.60
2023-05-02T01:24:55.337Z,8.60
2023-05-02T01:27:36.989Z,8.50
2023-05-02T01:30:04.703Z,8.40
2023-05-02T01:32:33.662Z,8.30
2023-05-02T01:35:00.458Z,8.30
2023-05-02T01:37:28.436Z,8.30
2023-05-02T01:39:56.517Z,8.30
2023-05-02T01:42:23.596Z,8.30
2023-05-02T01:44:51.079Z,8.30
2023-05-02T01:47:18.724Z,8.40
2023-05-02T01:49:46.715Z,8.40
2023-05-02T01:52:14.771Z,8.30
2023-05-02T01:54:42.585Z,8.20
2023-05-02T01:57:09.426Z,8.20
2023-05-02T01:59:36.648Z,8.10
2023-05-02T02:02:04.180Z,8.10
2023-05-02T02:04:30.964Z,8.10
2023-05-02T02:07:06.516Z,8.00
2023-05-02T02:09:33.180Z,8.00
2023-05-02T02:12:07.574Z,8.00
2023-05-02T02:14:38.930Z,8.00
2023-05-02T02:17:32.125Z,8.10
2023-05-02T02:19:59.254Z,8.10
2023-05-02T02:22:27.501Z,8.00
2023-05-02T02:24:54.655Z,8.00
2023-05-02T02:27:24.093Z,8.00
2023-05-02T02:29:51.152Z,8.00
2023-05-02T02:32:18.516Z,8.10
2023-05-02T02:34:45.316Z,8.10
2023-05-02T02:37:41.586Z,8.10
2023-05-02T02:40:38.350Z,8.10
2023-05-02T02:43:26.059Z,8.10
2023-05-02T02:46:04.531Z,8.00
2023-05-02T02:48:38.870Z,8.10
2023-05-02T02:51:42.680Z,8.10
2023-05-02T02:54:48.951Z,8.20
2023-05-02T02:57:18.830Z,8.30
2023-05-02T02:59:53.447Z,8.40
2023-05-02T03:02:20.712Z,8.40
2023-05-02T03:04:48.772Z,8.40
2023-05-02T03:07:15.994Z,8.30
2023-05-02T03:09:47.274Z,8.40
2023-05-02T03:12:21.992Z,8.50
2023-05-02T03:14:50.739Z,8.50
2023-05-02T03:17:18.202Z,8.50
2023-05-02T03:19:47.519Z,8.50
2023-05-02T03:22:17.464Z,8.70
2023-05-02T03:24:44.691Z,8.80
2023-05-02T03:27:14.464Z,8.80
2023-05-02T03:29:42.676Z,8.80
2023-05-02T03:32:12.361Z,8.90
2023-05-02T03:34:42.502Z,8.90
2023-05-02T03:37:10.949Z,9.00
2023-05-02T03:39:38.019Z,9.10
2023-05-02T03:42:06.147Z,9.20
2023-05-02T03:44:33.182Z,9.30
2023-05-02T03:47:00.784Z,9.30
2023-05-02T03:49:29.363Z,9.30
2023-05-02T03:51:56.341Z,9.30
2023-05-02T03:54:33.160Z,9.40
2023-05-02T03:57:04.145Z,9.50
2023-05-02T03:59:35.931Z,9.40
2023-05-02T04:02:12.646Z,9.50
2023-05-02T04:04:44.069Z,9.50
2023-05-02T04:07:19.611Z,9.50
2023-05-02T04:09:52.087Z,9.40
2023-05-02T04:12:19.930Z,9.40
2023-05-02T04:14:49.505Z,9.30
2023-05-02T04:17:17.123Z,9.30
2023-05-02T04:19:47.529Z,9.20
2023-05-02T04:22:15.812Z,9.20
2023-05-02T04:24:48.593Z,9.20
2023-05-02T04:27:16.876Z,9.20
2023-05-02T04:29:44.552Z,9.20
2023-05-02T04:32:12.920Z,9.30
2023-05-02T04:34:40.848Z,9.20
2023-05-02T04:37:08.713Z,9.20
2023-05-02T04:39:36.804Z,9.20
2023-05-02T04:42:11.195Z,9.10
2023-05-02T04:44:46.036Z,9.10
2023-05-02T04:47:16.941Z,9.00
2023-05-02T04:49:46.040Z,9.00
2023-05-02T04:52:12.717Z,8.90
2023-05-02T04:54:40.199Z,8.80
2023-05-02T04:57:08.184Z,8.80
2023-05-02T04:59:39.135Z,8.80
2023-05-02T05:02:08.278Z,8.70
2023-05-02T05:04:35.852Z,8.70
2023-05-02T05:07:07.790Z,8.70
2023-05-02T05:09:35.112Z,8.70
2023-05-02T05:12:02.632Z,8.80
2023-05-02T05:14:32.298Z,8.70
2023-05-02T05:16:59.618Z,8.90
2023-05-02T05:19:28.381Z,8.80
2023-05-02T05:21:56.772Z,8.90
2023-05-02T05:24:24.442Z,9.00
2023-05-02T05:26:55.753Z,9.00
2023-05-02T05:29:23.489Z,9.00
2023-05-02T05:31:50.499Z,9.00
2023-05-02T05:34:20.841Z,9.10
2023-05-02T05:36:49.985Z,9.20
2023-05-02T05:39:19.520Z,9.10
2023-05-02T05:41:49.889Z,9.20
2023-05-02T05:44:17.377Z,9.30
2023-05-02T05:46:44.982Z,9.30
2023-05-02T05:49:12.836Z,9.30
2023-05-02T05:51:42.168Z,9.30
2023-05-02T05:54:09.317Z,9.30
2023-05-02T05:56:37.638Z,9.40
2023-05-02T05:59:14.781Z,9.50
2023-05-02T06:01:42.513Z,9.70
2023-05-02T06:04:11.006Z,9.80
2023-05-02T06:06:41.575Z,9.90
2023-05-02T06:09:08.854Z,10.00
2023-05-02T06:11:38.111Z,10.10
2023-05-02T06:14:05.526Z,10.20
2023-05-02T06:16:33.150Z,10.30
2023-05-02T06:19:15.513Z,10.40
2023-05-02T06:21:42.233Z,10.50
2023-05-02T06:24:08.936Z,10.50
2023-05-02T06:26:35.911Z,10.50
2023-05-02T06:29:03.501Z,10.50
2023-05-02T06:31:30.290Z,10.60
2023-05-02T06:33:57.622Z,10.60
2023-05-02T06:36:24.526Z,10.70
2023-05-02T06:38:51.834Z,10.80
2023-05-02T06:41:20.677Z,10.80
2023-05-02T06:43:47.432Z,11.00
2023-05-02T06:46:14.337Z,11.20
2023-05-02T06:48:41.376Z,11.30
2023-05-02T06:51:08.670Z,11.50
2023-05-02T06:53:36.632Z,11.70
2023-05-02T06:56:03.747Z,12.00
2023-05-02T06:58:30.883Z,12.10
2023-05-02T07:00:57.652Z,12.10
2023-05-02T07:03:24.486Z,12.00
2023-05-02T07:05:52.418Z,12.00
2023-05-02T07:08:21.623Z,12.00
2023-05-02T07:10:48.558Z,12.00
2023-05-02T07:13:17.528Z,12.00
2023-05-02T07:15:44.767Z,12.10
2023-05-02T07:18:12.037Z,12.20
2023-05-02T07:20:41.358Z,12.30
2023-05-02T07:23:09.569Z,12.60
2023-05-02T07:25:36.934Z,12.70
2023-05-02T07:28:03.979Z,12.80
2023-05-02T07:30:31.854Z,12.80
2023-05-02T07:32:58.621Z,12.90
2023-05-02T07:35:25.831Z,13.00
2023-05-02T07:37:53.109Z,12.90
2023-05-02T07:40:21.002Z,12.90
2023-05-02T07:42:48.854Z,12.80
2023-05-02T07:45:16.319Z,12.80
2023-05-02T07:47:43.329Z,12.60
2023-05-02T07:50:10.968Z,12.60
2023-05-02T07:52:38.007Z,12.70
2023-05-02T07:55:06.259Z,12.70
2023-05-02T07:57:32.996Z,12.60
2023-05-02T07:59:59.948Z,12.70
2023-05-02T08:02:27.765Z,12.50
2023-05-02T08:04:54.696Z,12.40
2023-05-02T08:07:21.497Z,12.30
2023-05-02T08:09:48.794Z,12.30
2023-05-02T08:12:15.555Z,12.30
2023-05-02T08:14:42.257Z,12.30
2023-05-02T08:17:09.173Z,12.30
2023-05-02T08:19:36.317Z,12.30
2023-05-02T08:22:03.269Z,12.30
2023-05-02T08:24:31.272Z,12.40
2023-05-02T08:27:00.065Z,12.40
2023-05-02T08:29:27.169Z,12.60
2023-05-02T08:31:54.092Z,12.70
2023-05-02T08:34:21.270Z,12.80
2023-05-02T08:36:48.171Z,12.90
2023-05-02T08:39:15.319Z,13.00
2023-05-02T08:41:42.719Z,13.00
2023-05-02T08:44:09.869Z,13.10
2023-05-02T08:46:37.411Z,13.10
2023-05-02T08:49:04.540Z,13.20
2023-05-02T08:51:32.734Z,13.10
2023-05-02T08:54:00.061Z,13.10
2023-05-02T08:56:27.014Z,13.20
2023-05-02T08:58:54.116Z,13.40
2023-05-02T09:01:23.348Z,13.90
2023-05-02T09:03:50.379Z,14.50
2023-05-02T09:06:19.047Z,14.80
2023-05-02T09:08:49.471Z,15.00
2023-05-02T09:11:16.940Z,15.30
2023-05-02T09:13:47.892Z,15.20
2023-05-02T09:16:24.148Z,14.80
2023-05-02T09:18:55.148Z,14.70
2023-05-02T09:21:23.378Z,14.50
2023-05-02T09:23:58.081Z,14.60
2023-05-02T09:26:33.423Z,14.60
2023-05-02T09:29:04.765Z,14.70
2023-05-02T09:34:17.482Z,15.30
2023-05-02T09:36:46.427Z,15.20
2023-05-02T09:39:15.210Z,15.10
2023-05-02T09:41:43.326Z,15.10
2023-05-02T09:44:11.915Z,15.00
2023-05-02T09:46:45.404Z,14.90
2023-05-02T09:49:12.272Z,14.90
2023-05-02T09:51:39.260Z,14.80
2023-05-02T09:54:06.922Z,15.10
2023-05-02T09:57:01.970Z,15.10
2023-05-02T09:59:29.749Z,15.40
2023-05-02T10:02:13.513Z,16.30
2023-05-02T10:04:44.577Z,16.70
2023-05-02T10:07:11.789Z,16.40
2023-05-02T10:09:42.609Z,16.30
2023-05-02T10:12:10.068Z,16.20
2023-05-02T10:14:41.285Z,16.00
2023-05-02T10:17:21.579Z,16.10
2023-05-02T10:19:56.379Z,16.40
2023-05-02T10:22:23.444Z,16.90
2023-05-02T10:24:51.107Z,17.40
2023-05-02T10:27:18.092Z,16.90
2023-05-02T10:29:45.277Z,16.80
2023-05-02T10:32:12.249Z,17.20
2023-05-02T10:34:39.008Z,16.60
2023-05-02T10:37:05.721Z,16.60
2023-05-02T10:39:32.729Z,16.40
2023-05-02T10:42:02.479Z,16.30
2023-05-02T10:44:34.185Z,16.20
2023-05-02T10:47:01.608Z,16.70
2023-05-02T10:49:29.772Z,17.60
2023-05-02T10:51:56.986Z,18.40
2023-05-02T10:54:24.486Z,18.90
2023-05-02T10:57:06.416Z,19.20
2023-05-02T10:59:37.792Z,19.40
2023-05-02T11:02:23.663Z,19.70
2023-05-02T11:05:06.052Z,20.00
2023-05-02T11:07:34.076Z,19.50
2023-05-02T11:10:20.323Z,19.30
2023-05-02T11:12:51.006Z,19.40
2023-05-02T11:15:29.718Z,18.90
2023-05-02T11:18:09.089Z,18.60
2023-05-02T11:20:36.514Z,18.50
2023-05-02T11:23:15.765Z,18.70
2023-05-02T11:25:46.873Z,18.70
2023-05-02T11:28:39.074Z,18.40
2023-05-02T11:31:06.723Z,18.90
2023-05-02T11:33:34.226Z,19.40
2023-05-02T11:36:01.127Z,19.90
2023-05-02T11:38:36.348Z,20.50
2023-05-02T11:41:04.602Z,20.40
2023-05-02T11:43:32.438Z,19.50
2023-05-02T11:46:00.538Z,19.00
2023-05-02T11:48:28.124Z,18.90
2023-05-02T11:51:02.336Z,19.30
2023-05-02T11:53:29.777Z,19.20
2023-05-02T11:55:58.409Z,18.90
2023-05-02T11:58:48.753Z,18.50
2023-05-02T12:01:16.113Z,18.10
2023-05-02T12:03:43.378Z,17.80
2023-05-02T12:06:15.359Z,17.50
2023-05-02T12:08:46.186Z,17.30
2023-05-02T12:11:13.762Z,17.20
2023-05-02T12:13:50.680Z,16.70
2023-05-02T12:16:19.086Z,16.70
2023-05-02T12:18:46.887Z,16.70
2023-05-02T12:21:14.178Z,17.00
2023-05-02T12:23:42.331Z,17.60
2023-05-02T12:26:25.100Z,18.10
2023-05-02T12:28:54.812Z,18.60
2023-05-02T12:31:22.736Z,18.70
2023-05-02T12:33:51.057Z,18.80
2023-05-02T12:36:19.424Z,19.10
2023-05-02T12:39:16.516Z,19.20
2023-05-02T12:41:45.914Z,19.20
2023-05-02T12:44:13.150Z,18.70
2023-05-02T12:46:58.351Z,18.10
2023-05-02T12:49:25.449Z,17.60
2023-05-02T12:51:58.168Z,17.50
2023-05-02T12:54:26.790Z,17.40
2023-05-02T12:56:53.760Z,17.20
2023-05-02T12:59:30.512Z,17.10
2023-05-02T13:01:57.482Z,17.10
2023-05-02T13:04:41.375Z,17.20
2023-05-02T13:07:08.398Z,17.50
2023-05-02T13:09:35.291Z,17.70
2023-05-02T13:12:04.554Z,17.90
2023-05-02T13:14:31.381Z,18.10
2023-05-02T13:17:00.709Z,18.20
2023-05-02T13:19:31.345Z,18.00
2023-05-02T13:21:58.841Z,18.00
2023-05-02T13:24:26.188Z,18.00
2023-05-02T13:26:52.945Z,18.00
2023-05-02T13:29:20.006Z,17.90
2023-05-02T13:31:46.738Z,17.80
2023-05-02T13:34:13.472Z,17.50
2023-05-02T13:36:45.988Z,17.30
2023-05-02T13:39:13.794Z,17.10
2023-05-02T13:41:40.640Z,17.00
2023-05-02T13:44:09.201Z,16.80
2023-05-02T13:46:37.917Z,16.50
2023-05-02T13:49:05.270Z,16.40
2023-05-02T13:51:32.427Z,16.10
2023-05-02T13:53:59.571Z,16.00
2023-05-02T13:56:26.490Z,16.00
2023-05-02T13:58:54.251Z,15.80
2023-05-02T14:01:21.082Z,15.60
2023-05-02T14:03:48.266Z,15.60
2023-05-02T14:06:15.121Z,15.50
2023-05-02T14:08:42.644Z,15.50
2023-05-02T14:11:10.407Z,15.60
2023-05-02T14:13:37.368Z,15.70
2023-05-02T14:16:04.603Z,15.70
2023-05-02T14:18:31.425Z,15.80
2023-05-02T14:21:00.046Z,15.80
2023-05-02T14:23:28.488Z,15.70
2023-05-02T14:25:55.907Z,15.70
2023-05-02T14:28:23.020Z,15.90
2023-05-02T14:30:50.096Z,16.00
2023-05-02T14:33:17.212Z,16.10
2023-05-02T14:35:44.875Z,16.10
2023-05-02T14:38:11.994Z,16.20
2023-05-02T14:40:39.148Z,16.20
2023-05-02T14:43:07.105Z,16.30
2023-05-02T14:45:34.794Z,16.40
2023-05-02T14:48:01.547Z,16.60
2023-05-02T14:50:28.235Z,16.80
2023-05-02T14:52:56.269Z,16.90
2023-05-02T14:55:24.578Z,16.90
2023-05-02T14:57:51.513Z,16.90
2023-05-02T15:00:19.680Z,16.80
2023-05-02T15:02:46.759Z,16.70
2023-05-02T15:05:14.020Z,16.70
2023-05-02T15:07:40.888Z,16.80
2023-05-02T15:10:08.501Z,16.60
2023-05-02T15:12:35.593Z,16.60
2023-05-02T15:15:02.998Z,16.50
2023-05-02T15:17:29.870Z,16.40
2023-05-02T15:19:58.525Z,16.30
2023-05-02T15:22:26.100Z,16.30
2023-05-02T15:24:53.046Z,16.20
2023-05-02T15:27:20.126Z,16.30
2023-05-02T15:29:47.454Z,16.20
2023-05-02T15:32:14.711Z,16.20
2023-05-02T15:34:41.554Z,16.30
2023-05-02T15:37:08.772Z,16.20
2023-05-02T15:39:35.531Z,16.30
2023-05-02T15:42:05.894Z,16.40
2023-05-02T15:44:38.951Z,16.40
2023-05-02T15:47:05.904Z,16.40
2023-05-02T15:49:33.582Z,16.30
2023-05-02T15:52:01.907Z,16.30
2023-05-02T15:54:29.361Z,16.30
2023-05-02T15:56:56.765Z,16.20
2023-05-02T15:59:23.514Z,16.20
2023-05-02T16:01:50.693Z,16.30
2023-05-02T16:04:17.729Z,16.30
2023-05-02T16:06:44.780Z,16.30
2023-05-02T16:09:13.001Z,16.40
2023-05-02T16:11:39.773Z,16.40
2023-05-02T16:14:07.013Z,16.40
2023-05-02T16:16:34.381Z,16.30
2023-05-02T16:19:01.407Z,16.20
2023-05-02T16:21:28.502Z,16.20
2023-05-02T16:23:55.534Z,16.20
2023-05-02T16:26:22.341Z,16.20
2023-05-02T16:28:49.067Z,16.20
2023-05-02T16:31:16.273Z,16.20
2023-05-02T16:33:43.379Z,16.10
2023-05-02T16:36:10.423Z,16.00
2023-05-02T16:38:37.778Z,15.90
2023-05-02T16:41:06.843Z,15.90
2023-05-02T16:43:33.636Z,16.00
2023-05-02T16:46:06.790Z,15.90
2023-05-02T16:48:34.036Z,15.90
2023-05-02T16:51:03.964Z,15.80
2023-05-02T16:53:31.460Z,15.80
2023-05-02T16:55:59.741Z,15.80
2023-05-02T16:58:28.773Z,15.80
2023-05-02T17:00:56.328Z,15.80
2023-05-02T17:03:23.387Z,15.70
2023-05-02T17:05:50.770Z,15.70
2023-05-02T17:08:17.986Z,15.70
2023-05-02T17:10:51.387Z,15.60
2023-05-02T17:13:18.398Z,15.60
2023-05-02T17:15:45.646Z,15.60
2023-05-02T17:18:13.078Z,15.60
2023-05-02T17:20:40.136Z,15.60
2023-05-02T17:23:07.338Z,15.50
2023-05-02T17:25:34.113Z,15.50
2023-05-02T17:28:01.729Z,15.40
2023-05-02T17:30:29.049Z,15.30
2023-05-02T17:32:56.409Z,15.30
2023-05-02T17:35:23.160Z,15.20
2023-05-02T17:37:50.094Z,15.20
2023-05-02T17:40:17.126Z,15.10
2023-05-02T17:42:45.702Z,15.10
2023-05-02T17:45:12.771Z,15.00
2023-05-02T17:47:39.847Z,14.90
2023-05-02T17:50:07.818Z,14.90
2023-05-02T17:52:35.688Z,14.90
2023-05-02T17:55:03.236Z,14.80
2023-05-02T17:57:30.188Z,14.70
2023-05-02T17:59:59.385Z,14.80
2023-05-02T18:02:33.675Z,14.70
2023-05-02T18:05:01.870Z,14.70
2023-05-02T18:07:29.972Z,14.60
2023-05-02T18:09:57.318Z,14.50
2023-05-02T18:12:27.124Z,14.50
2023-05-02T18:14:54.424Z,14.50
2023-05-02T18:17:21.696Z,14.40
2023-05-02T18:19:50.083Z,14.30
2023-05-02T18:22:20.308Z,14.20
2023-05-02T18:24:48.785Z,14.20
2023-05-02T18:27:16.516Z,14.10
2023-05-02T18:29:44.023Z,14.10
2023-05-02T18:32:10.958Z,14.00
2023-05-02T18:34:38.949Z,14.00
2023-05-02T18:37:07.168Z,13.90
2023-05-02T18:39:34.307Z,13.90
2023-05-02T18:42:02.969Z,13.90
2023-05-02T18:44:30.419Z,13.80
2023-05-02T18:46:57.990Z,13.80
2023-05-02T18:49:26.090Z,13.70
2023-05-02T18:51:56.464Z,13.70
2023-05-02T18:54:24.429Z,13.60
2023-05-02T18:56:51.586Z,13.50
2023-05-02T18:59:19.184Z,13.50
2023-05-02T19:01:48.508Z,13.50
2023-05-02T19:04:15.560Z,13.50
2023-05-02T19:06:43.314Z,13.50
2023-05-02T19:09:10.197Z,13.40
2023-05-02T19:11:37.053Z,13.40
2023-05-02T19:14:03.974Z,13.40
2023-05-02T19:16:31.740Z,13.30
2023-05-02T19:19:00.227Z,13.20
2023-05-02T19:21:28.149Z,13.10
2023-05-02T19:23:56.772Z,13.10
2023-05-02T19:26:23.762Z,13.00
2023-05-02T19:28:50.858Z,13.00
2023-05-02T19:31:19.186Z,13.00
2023-05-02T19:33:52.479Z,13.00
2023-05-02T19:36:19.916Z,12.90
2023-05-02T19:38:51.011Z,12.90
2023-05-02T19:41:18.502Z,12.90
2023-05-02T19:43:45.255Z,12.80
2023-05-02T19:46:12.185Z,12.80
2023-05-02T19:48:39.355Z,12.80
2023-05-02T19:51:06.235Z,12.70
2023-05-02T19:53:36.586Z,12.60
2023-05-02T19:56:03.957Z,12.60
2023-05-02T19:58:31.637Z,12.60
2023-05-02T20:00:58.686Z,12.60
2023-05-02T20:03:25.705Z,12.50
2023-05-02T20:05:52.840Z,12.60
2023-05-02T20:08:20.943Z,12.60
2023-05-02T20:10:50.134Z,12.50
2023-05-02T20:13:17.107Z,12.40
2023-05-02T20:15:44.166Z,12.40
2023-05-02T20:18:10.990Z,12.40
2023-05-02T20:20:37.802Z,12.30
2023-05-02T20:23:04.748Z,12.30
2023-05-02T20:25:32.062Z,12.20
2023-05-02T20:27:59.309Z,12.20
2023-05-02T20:30:26.025Z,12.20
2023-05-02T20:32:53.430Z,12.10
2023-05-02T20:35:20.611Z,12.10
2023-05-02T20:37:48.568Z,12.10
2023-05-02T20:40:15.540Z,12.10
2023-05-02T20:42:43.813Z,12.20
2023-05-02T20:45:12.782Z,12.10
2023-05-02T20:47:39.881Z,12.10
2023-05-02T20:50:09.215Z,12.00
2023-05-02T20:52:37.636Z,11.90
2023-05-02T20:55:04.941Z,11.80
2023-05-02T20:57:32.000Z,11.80
2023-05-02T21:00:01.735Z,11.80
2023-05-02T21:02:28.920Z,11.70
2023-05-02T21:04:56.092Z,11.70
2023-05-02T21:07:23.089Z,11.60
2023-05-02T21:09:50.179Z,11.60
2023-05-02T21:12:17.671Z,11.40
2023-05-02T21:14:44.401Z,11.30
2023-05-02T21:17:11.455Z,11.30
2023-05-02T21:19:38.160Z,11.30
2023-05-02T21:22:05.274Z,11.20
2023-05-02T21:24:32.670Z,11.10
2023-05-02T21:26:59.669Z,11.00
2023-05-02T21:29:26.517Z,11.00
2023-05-02T21:31:54.778Z,10.90
2023-05-02T21:34:21.986Z,10.80
2023-05-02T21:36:49.356Z,10.80
2023-05-02T21:39:16.846Z,10.80
2023-05-02T21:41:43.824Z,10.80
2023-05-02T21:44:11.699Z,10.60
2023-05-02T21:46:38.765Z,10.50
2023-05-02T21:49:05.896Z,10.60
2023-05-02T21:51:34.297Z,10.50
2023-05-02T21:54:01.021Z,10.50
2023-05-02T21:56:28.152Z,10.50
2023-05-02T21:58:55.151Z,10.60
2023-05-02T22:01:21.914Z,10.40
2023-05-02T22:03:49.110Z,10.30
2023-05-02T22:06:16.912Z,10.30
2023-05-02T22:08:44.943Z,10.40
2023-05-02T22:11:11.935Z,10.40
2023-05-02T22:13:38.731Z,10.20
2023-05-02T22:16:07.509Z,10.20
2023-05-02T22:18:34.567Z,10.30
2023-05-02T22:21:02.143Z,10.30
2023-05-02T22:23:30.980Z,10.30
2023-05-02T22:25:58.233Z,10.30
2023-05-02T22:28:25.261Z,10.30
2023-05-02T22:30:51.957Z,10.30
2023-05-02T22:33:19.243Z,10.30
2023-05-02T22:35:46.541Z,10.20
2023-05-02T22:38:16.490Z,10.20
2023-05-02T22:40:43.332Z,10.10
2023-05-02T22:43:10.249Z,10.20
2023-05-02T22:45:38.240Z,10.20
2023-05-02T22:48:06.723Z,10.20
2023-05-02T22:50:33.950Z,10.10
2023-05-02T22:53:04.119Z,10.00
2023-05-02T22:55:31.209Z,10.10
2023-05-02T22:57:58.527Z,10.10
2023-05-02T23:00:25.903Z,10.10
2023-05-02T23:02:52.967Z,10.10
2023-05-02T23:05:20.460Z,10.00
2023-05-02T23:07:47.535Z,9.90
2023-05-02T23:10:14.793Z,9.90
2023-05-02T23:12:42.271Z,10.00
2023-05-02T23:15:09.572Z,9.80
2023-05-02T23:17:41.196Z,9.80
2023-05-02T23:20:10.478Z,9.90
2023-05-02T23:22:37.953Z,9.90
2023-05-02T23:25:05.844Z,9.90
2023-05-02T23:27:32.811Z,9.80
2023-05-02T23:29:59.974Z,9.70
2023-05-02T23:32:27.333Z,9.60
2023-05-02T23:34:54.836Z,9.50
2023-05-02T23:37:21.815Z,9.50
2023-05-02T23:39:49.569Z,9.30
2023-05-02T23:42:16.869Z,9.30
2023-05-02T23:44:43.765Z,9.20
2023-05-02T23:47:10.726Z,9.10
2023-05-02T23:49:38.062Z,9.00
2023-05-02T23:52:05.581Z,9.00
2023-05-02T23:54:33.792Z,8.90
2023-05-02T23:57:01.104Z,8.80
2023-05-02T23:59:27.857Z,8.80
